TimePST,TemperatureF,Dew PointF,Humidity,Sea Level PressureIn,VisibilityMPH,Wind Direction,Wind SpeedMPH,Gust SpeedMPH,PrecipitationIn,Events,Conditions,WindDirDegrees,DateUTC
12:26 AM,42.8,39.2,87,30.24,6.0,Calm,Calm,-,N/A,,Overcast,0,2013-02-04 08:26:00
12:53 AM,43.0,39.9,89,30.24,6.0,Calm,Calm,-,N/A,,Overcast,0,2013-02-04 08:53:00
3:15 AM,42.8,39.2,87,30.23,5.0,Calm,Calm,-,N/A,,Overcast,0,2013-02-04 11:15:00
3:53 AM,43.0,39.9,89,30.24,6.0,Calm,Calm,-,N/A,,Overcast,0,2013-02-04 11:53:00
4:17 AM,42.8,39.2,87,30.22,6.0,Calm,Calm,-,N/A,,Overcast,0,2013-02-04 12:17:00
4:28 AM,42.8,41.0,93,30.21,6.0,Calm,Calm,-,N/A,,Overcast,0,2013-02-04 12:28:00
4:39 AM,42.8,41.0,93,30.21,5.0,Calm,Calm,-,N/A,,Overcast,0,2013-02-04 12:39:00
4:50 AM,42.8,41.0,93,30.21,5.0,Calm,Calm,-,N/A,,Overcast,0,2013-02-04 12:50:00
4:53 AM,42.1,39.9,92,30.22,5.0,Calm,Calm,-,N/A,,Overcast,0,2013-02-04 12:53:00
5:53 AM,42.1,39.9,92,30.19,5.0,Calm,Calm,-,N/A,,Overcast,0,2013-02-04 13:53:00
6:04 AM,42.8,39.2,87,30.20,5.0,Calm,Calm,-,N/A,,Overcast,0,2013-02-04 14:04:00
6:53 AM,39.9,39.0,97,30.19,3.0,Calm,Calm,-,N/A,,Mostly Cloudy,0,2013-02-04 14:53:00
7:00 AM,39.2,37.4,93,30.18,2.5,Calm,Calm,-,N/A,,Partly Cloudy,0,2013-02-04 15:00:00
7:09 AM,39.2,37.4,93,30.18,3.0,Calm,Calm,-,N/A,,Mostly Cloudy,0,2013-02-04 15:09:00
7:53 AM,41.0,39.0,93,30.18,3.0,Calm,Calm,-,N/A,,Mostly Cloudy,0,2013-02-04 15:53:00
8:53 AM,44.1,41.0,89,30.18,7.0,Calm,Calm,-,N/A,,Overcast,0,2013-02-04 16:53:00
9:53 AM,45.0,41.0,86,30.17,7.0,Calm,Calm,-,N/A,,Overcast,0,2013-02-04 17:53:00
10:53 AM,46.0,42.1,86,30.16,6.0,WNW,3.5,-,N/A,,Overcast,290,2013-02-04 18:53:00
11:53 AM,46.9,42.1,83,30.13,6.0,SW,4.6,-,N/A,,Haze,230,2013-02-04 19:53:00
12:53 PM,48.0,41.0,77,30.10,10.0,Calm,Calm,-,N/A,,Overcast,0,2013-02-04 20:53:00
1:53 PM,50.0,39.9,68,30.08,10.0,WSW,3.5,-,N/A,,Overcast,240,2013-02-04 21:53:00
2:53 PM,51.1,39.0,63,30.04,10.0,Calm,Calm,-,N/A,,Clear,0,2013-02-04 22:53:00
3:53 PM,51.1,39.0,63,30.04,10.0,Calm,Calm,-,N/A,,Clear,0,2013-02-04 23:53:00
4:53 PM,51.1,39.9,66,30.03,10.0,Calm,Calm,-,N/A,,Partly Cloudy,0,2013-02-05 00:53:00
5:53 PM,48.9,39.9,71,30.01,10.0,Calm,Calm,-,N/A,,Scattered Clouds,0,2013-02-05 01:53:00
6:53 PM,46.0,39.9,79,29.98,10.0,East,3.5,-,N/A,,Clear,90,2013-02-05 02:53:00
7:53 PM,46.9,39.9,77,29.96,10.0,ESE,3.5,-,N/A,,Clear,120,2013-02-05 03:53:00
8:53 PM,46.0,39.0,76,29.96,10.0,Calm,Calm,-,N/A,,Clear,0,2013-02-05 04:53:00
9:53 PM,45.0,39.0,80,29.96,10.0,Calm,Calm,-,N/A,,Clear,0,2013-02-05 05:53:00
10:53 PM,45.0,39.0,80,29.96,10.0,ESE,6.9,-,N/A,,Clear,120,2013-02-05 06:53:00
11:53 PM,43.0,37.9,82,29.97,10.0,SE,5.8,-,N/A,,Clear,130,2013-02-05 07:53:00